Terminal Aerodrome Forecast
Issued by NWS Memphis, TN

Home | Current Version | Previous Version | Text Only | Print | Product List | Glossary On
Versions: 1 2 3 4 5 6 7 8 9 10 11 12 13
300
FTUS44 KMEG 141125
TAFJBR
TAF
KJBR 141125Z 1412/1512 09010KT P6SM VCSH SCT025 OVC045
      TEMPO 1414/1418 -FZRA BKN025
     FM141800 14010KT P6SM -RA OVC025
     FM142300 09005KT 5SM -RA BR BKN009 OVC015
     FM150400 03005KT 3SM RA BR OVC004=

USA.gov is the U.S. government's official web portal to all federal, state and local government web resources and services.